MST,Max TemperatureF,Mean TemperatureF,Min TemperatureF,Max Dew PointF,MeanDew PointF,Min DewpointF,Max Humidity, Mean Humidity, Min Humidity, Max Sea Level PressureIn, Mean Sea Level PressureIn, Min Sea Level PressureIn, Max VisibilityMiles, Mean VisibilityMiles, Min VisibilityMiles, Max Wind SpeedMPH, Mean Wind SpeedMPH, Max Gust SpeedMPH,PrecipitationIn, CloudCover, Events, WindDirDegrees
2013-2-1,51,36,20,35,25,17,92,66,39,30.24,30.13,30.01,10,10,10,26,7,35,0.02,5,Rain,328
2013-2-2,52,37,21,27,20,13,92,57,21,30.36,30.30,30.21,10,10,10,29,10,36,0.00,1,,314
2013-2-3,56,35,13,20,15,11,88,55,22,30.28,30.07,29.89,10,10,10,16,5,21,0.00,0,,301
2013-2-4,56,38,19,18,16,13,77,49,20,30.01,29.93,29.83,10,10,10,22,9,28,0.00,0,,315
2013-2-5,55,38,21,23,20,16,81,55,28,30.12,29.96,29.81,10,10,10,13,7,15,0.00,0,,126
2013-2-6,55,44,32,28,24,15,70,46,22,30.09,29.88,29.77,10,10,10,22,6,28,T,3,,333
2013-2-7,50,36,21,25,20,14,100,64,28,30.22,30.14,30.07,10,10,10,12,8,17,0.00,0,,4
2013-2-8,55,36,17,22,18,14,77,52,26,30.06,29.90,29.74,10,10,10,18,8,23,0.00,0,,100
2013-2-9,42,33,23,25,22,19,88,67,46,29.82,29.67,29.55,10,8,2,18,10,25,0.01,5,Snow,359
2013-2-10,35,25,15,25,19,8,92,68,44,30.15,29.79,29.56,10,9,2,45,22,56,0.01,6,Snow,323
2013-2-11,34,20,6,11,6,2,88,60,32,30.27,30.18,30.07,10,10,10,13,7,17,0.00,0,,293
2013-2-12,45,27,8,14,9,3,80,52,24,30.18,30.12,30.06,10,10,10,25,11,32,0.00,1,,302
2013-2-13,51,33,15,31,20,10,80,57,34,30.04,29.98,29.88,10,10,10,33,14,41,T,3,,294
2013-2-14,34,25,15,28,18,8,85,60,35,30.43,30.22,30.01,10,9,2,32,14,40,0.01,6,Snow,316
2013-2-15,34,23,12,23,16,8,88,69,49,30.45,30.38,30.29,10,8,1,23,7,30,0.01,6,Snow,332
2013-2-16,56,38,19,21,18,14,84,54,24,30.26,30.08,29.93,10,10,10,29,11,35,0.00,2,,305
2013-2-17,61,40,18,27,16,10,75,45,14,29.91,29.73,29.57,10,10,10,29,10,37,0.00,0,,317
2013-2-18,38,25,11,24,17,8,81,63,44,30.22,30.04,29.83,10,10,10,26,12,33,0.00,4,,308
2013-2-19,43,24,5,20,12,2,91,64,36,30.26,30.13,30.01,10,10,10,24,13,31,0.00,0,,120
2013-2-20,27,22,16,19,14,5,91,73,54,29.98,29.90,29.77,10,8,2,24,18,32,0.02,7,Snow,122
2013-2-21,26,20,14,18,16,12,92,80,68,30.04,29.91,29.80,10,4,1,15,6,18,0.08,8,Snow,79
2013-2-22,40,26,12,24,16,10,100,72,44,30.07,29.96,29.86,10,8,0,16,7,21,0.00,5,Fog,303
2013-2-23,51,32,13,26,18,8,80,55,29,29.89,29.75,29.63,10,10,10,20,6,25,0.00,3,,308
2013-2-24,35,32,28,30,26,21,100,85,70,30.18,29.97,29.74,10,7,2,24,12,29,0.05,8,Snow,360
2013-2-25,41,27,13,23,15,8,88,59,30,30.19,30.06,29.91,10,10,10,14,6,16,0.00,1,,273
2013-2-26,43,27,11,28,22,8,92,64,36,30.14,29.98,29.81,10,9,2,29,14,36,T,6,Snow,339
2013-2-27,43,30,16,21,16,10,84,56,28,30.32,30.26,30.13,10,10,10,25,13,32,0.00,1,,307
2013-2-28,48,31,13,21,12,9,88,56,23,30.32,30.27,30.14,10,10,10,26,11,32,0.00,4,,317